Time;durP1;ratioP1;P1;durP2;ratioP2;P2;SDS_P1;SDS_P2;PMS_P1;PMS_P2;Temp;Humidity;BMP_temperature;BMP_pressure;BME280_temperature;BME280_humidity;BME280_pressure;Samples;Min_cycle;Max_cycle;Signal;HPM_P1;HPM_P2
2021/01/16 00:00:28;;;;;;;20.88;10.40;;;2.10;99.90;;;;;;5050231;28;20116;-59
2021/01/16 00:02:54;;;;;;;19.17;9.88;;;2.20;99.90;;;;;;5061276;28;20040;-58
2021/01/16 00:05:25;;;;;;;19.70;9.95;;;2.20;99.90;;;;;;5051768;28;20494;-58
2021/01/16 00:08:09;;;;;;;21.95;9.88;;;2.30;99.90;;;;;;5051102;28;20379;-58
2021/01/16 00:10:46;;;;;;;13.52;7.32;;;2.20;99.90;;;;;;5052058;28;20043;-59
2021/01/16 00:13:17;;;;;;;18.05;9.40;;;2.30;99.90;;;;;;5050703;28;20036;-56
2021/01/16 00:15:43;;;;;;;21.45;9.55;;;2.30;99.90;;;;;;5051706;28;20025;-56
2021/01/16 00:18:10;;;;;;;17.17;9.52;;;2.20;99.90;;;;;;5057445;28;20048;-58
2021/01/16 00:20:41;;;;;;;23.05;10.50;;;2.30;99.90;;;;;;5066689;28;20134;-57
2021/01/16 00:23:07;;;;;;;25.40;10.38;;;2.30;99.90;;;;;;5055145;28;20463;-58
2021/01/16 00:25:34;;;;;;;22.77;10.73;;;2.40;99.90;;;;;;5064151;28;20039;-56
2021/01/16 00:28:00;;;;;;;24.55;10.43;;;2.40;99.90;;;;;;5071305;28;20032;-60
2021/01/16 00:30:27;;;;;;;19.90;10.85;;;2.40;99.90;;;;;;5066551;28;20021;-55
2021/01/16 00:32:54;;;;;;;20.08;11.18;;;2.40;99.90;;;;;;5071159;28;20035;-59
2021/01/16 00:35:20;;;;;;;24.45;11.38;;;2.40;99.90;;;;;;5061945;28;20029;-58
2021/01/16 00:37:47;;;;;;;21.20;11.35;;;2.40;99.90;;;;;;5062633;28;20470;-58
2021/01/16 00:40:20;;;;;;;24.35;10.48;;;2.40;99.90;;;;;;5070511;28;20036;-53
2021/01/16 00:42:48;;;;;;;23.20;10.95;;;2.50;99.90;;;;;;5073037;28;20044;-58
2021/01/16 00:45:15;;;;;;;21.02;10.32;;;2.40;99.90;;;;;;5062474;28;20033;-56
2021/01/16 00:47:42;;;;;;;22.80;10.77;;;2.40;99.90;;;;;;5058449;28;20709;-57
2021/01/16 00:50:13;;;;;;;19.08;9.68;;;2.50;99.90;;;;;;5055418;28;20017;-59
2021/01/16 00:52:39;;;;;;;18.45;9.50;;;2.50;99.90;;;;;;5063403;28;20052;-57
2021/01/16 00:55:10;;;;;;;18.63;9.73;;;2.50;99.90;;;;;;5073833;28;20075;-57
2021/01/16 00:57:36;;;;;;;19.50;9.60;;;2.50;99.90;;;;;;5065494;28;20336;-55
2021/01/16 01:00:06;;;;;;;16.58;9.02;;;2.50;99.90;;;;;;5068021;28;20059;-57
2021/01/16 01:02:34;;;;;;;16.45;9.40;;;2.50;99.90;;;;;;5062105;28;20056;-58
2021/01/16 01:04:59;;;;;;;18.60;9.13;;;2.40;99.90;;;;;;5074220;28;20378;-56
2021/01/16 01:07:25;;;;;;;16.10;8.30;;;2.50;99.90;;;;;;5065906;28;20021;-56
2021/01/16 01:09:51;;;;;;;15.95;8.55;;;2.50;99.90;;;;;;5059465;28;20470;-57
2021/01/16 01:12:16;;;;;;;14.65;8.13;;;2.50;99.90;;;;;;5068281;28;20597;-57
2021/01/16 01:14:42;;;;;;;13.88;8.48;;;2.50;99.90;;;;;;5068110;28;20071;-56
2021/01/16 01:17:18;;;;;;;13.90;8.02;;;2.50;99.90;;;;;;5056013;28;20066;-56
2021/01/16 01:19:44;;;;;;;18.67;8.88;;;2.50;99.90;;;;;;5060891;28;20035;-56
2021/01/16 01:22:11;;;;;;;14.73;7.90;;;2.50;99.90;;;;;;5062313;28;20029;-59
2021/01/16 01:24:37;;;;;;;18.35;8.75;;;2.60;99.90;;;;;;5053342;28;20028;-57
2021/01/16 01:27:04;;;;;;;16.30;7.82;;;2.60;99.90;;;;;;5073281;28;20028;-57
2021/01/16 01:29:30;;;;;;;13.45;7.68;;;2.60;99.90;;;;;;5060560;28;20037;-56
2021/01/16 01:31:56;;;;;;;13.55;7.85;;;2.60;99.90;;;;;;5067391;28;20040;-57
2021/01/16 01:34:21;;;;;;;14.10;7.60;;;2.50;99.90;;;;;;5064163;28;20049;-56
2021/01/16 01:36:47;;;;;;;13.85;7.22;;;2.60;99.90;;;;;;5065730;28;20028;-55
2021/01/16 01:39:13;;;;;;;13.73;7.28;;;2.60;99.90;;;;;;5052357;28;20029;-58
2021/01/16 01:41:39;;;;;;;17.42;7.38;;;2.60;99.90;;;;;;5062984;28;20447;-58
2021/01/16 01:44:06;;;;;;;13.48;7.40;;;2.60;99.90;;;;;;5062713;28;20044;-58
2021/01/16 01:46:36;;;;;;;13.48;6.97;;;2.60;99.90;;;;;;5063238;28;20098;-58
2021/01/16 01:49:03;;;;;;;15.00;7.43;;;2.60;99.90;;;;;;5061001;28;20458;-57
2021/01/16 01:51:34;;;;;;;15.23;8.65;;;2.60;99.90;;;;;;5061641;28;20472;-58
2021/01/16 01:54:00;;;;;;;20.45;7.72;;;2.70;99.90;;;;;;5059618;28;20023;-52
2021/01/16 01:56:27;;;;;;;12.85;7.28;;;2.70;99.90;;;;;;5063509;28;20017;-57
2021/01/16 01:58:54;;;;;;;12.25;7.20;;;2.70;99.90;;;;;;5065119;28;20032;-59
2021/01/16 02:01:21;;;;;;;15.70;8.02;;;2.70;99.90;;;;;;5057425;28;20024;-58
2021/01/16 02:03:50;;;;;;;17.85;7.68;;;2.60;99.90;;;;;;5062008;28;20055;-57
2021/01/16 02:06:19;;;;;;;16.50;7.93;;;2.60;99.90;;;;;;5071032;28;20024;-58
2021/01/16 02:08:45;;;;;;;11.65;7.43;;;2.60;99.90;;;;;;5061889;28;20508;-55
2021/01/16 02:11:11;;;;;;;13.85;7.55;;;2.60;99.90;;;;;;5051553;28;20719;-55
2021/01/16 02:13:37;;;;;;;12.75;6.97;;;2.60;99.90;;;;;;5063943;28;20112;-55
2021/01/16 02:16:29;;;;;;;14.02;7.28;;;2.70;99.90;;;;;;5068414;28;20028;-58
2021/01/16 02:18:57;;;;;;;14.63;7.00;;;2.70;99.90;;;;;;5061443;28;20036;-58
2021/01/16 02:21:25;;;;;;;14.07;7.55;;;2.70;99.90;;;;;;5052594;28;20398;-57
2021/01/16 02:24:11;;;;;;;11.57;7.05;;;2.60;99.90;;;;;;5059986;28;20040;-58
2021/01/16 02:26:57;;;;;;;14.45;8.05;;;2.70;99.90;;;;;;5063853;28;20422;-56
2021/01/16 02:29:23;;;;;;;;;;;2.70;99.90;;;;;;5064720;28;20039;-55
2021/01/16 02:32:03;;;;;;;53.28;18.90;;;2.80;99.90;;;;;;5053520;28;19911;-57
2021/01/16 02:34:33;;;;;;;21.40;10.57;;;2.80;99.90;;;;;;5052570;28;20478;-55
2021/01/16 02:37:08;;;;;;;13.02;7.45;;;2.70;99.90;;;;;;5054207;28;20029;-59
2021/01/16 02:39:43;;;;;;;16.27;8.23;;;2.70;99.90;;;;;;5058998;28;20052;-57
2021/01/16 02:42:19;;;;;;;11.10;7.40;;;2.70;99.90;;;;;;5053476;28;20104;-57
2021/01/16 02:44:56;;;;;;;16.60;7.18;;;2.80;99.90;;;;;;5052079;28;20029;-58
2021/01/16 02:47:32;;;;;;;12.40;7.20;;;2.80;99.90;;;;;;5062716;28;20021;-55
2021/01/16 02:50:07;;;;;;;12.65;7.40;;;2.80;99.90;;;;;;5061641;28;20041;-58
2021/01/16 02:52:45;;;;;;;13.35;7.75;;;2.80;99.90;;;;;;5066177;28;20105;-58
2021/01/16 02:55:11;;;;;;;15.75;7.07;;;2.80;99.90;;;;;;5062719;28;20108;-56
2021/01/16 02:57:37;;;;;;;14.80;7.47;;;2.70;99.90;;;;;;5066052;28;20032;-57
2021/01/16 03:00:08;;;;;;;11.07;6.93;;;2.80;99.90;;;;;;5067460;28;20032;-57
2021/01/16 03:02:34;;;;;;;10.75;6.88;;;2.80;99.90;;;;;;5066596;28;20470;-57
2021/01/16 03:05:00;;;;;;;14.32;7.07;;;2.80;99.90;;;;;;5053341;28;20025;-55
2021/01/16 03:07:27;;;;;;;10.50;6.85;;;2.80;99.90;;;;;;5068446;28;20069;-56
2021/01/16 03:09:55;;;;;;;13.52;7.03;;;2.80;99.90;;;;;;5051209;28;20033;-56
2021/01/16 03:12:21;;;;;;;16.23;6.78;;;2.80;99.90;;;;;;5052413;28;20478;-58
2021/01/16 03:14:57;;;;;;;12.50;7.22;;;2.80;99.90;;;;;;5066922;28;20032;-58
2021/01/16 03:17:45;;;;;;;9.15;6.13;;;2.90;99.90;;;;;;5068235;28;20095;-56
2021/01/16 03:20:22;;;;;;;13.75;6.43;;;2.80;99.90;;;;;;5051636;28;20037;-59
2021/01/16 03:22:51;;;;;;;13.98;7.18;;;2.80;99.90;;;;;;5051652;28;20029;-58
2021/01/16 03:25:19;;;;;;;12.30;6.20;;;2.80;99.90;;;;;;5050556;28;20374;-58
2021/01/16 03:27:45;;;;;;;12.23;7.10;;;2.80;99.90;;;;;;5058209;28;20023;-55
2021/01/16 03:30:11;;;;;;;12.90;6.93;;;2.70;99.90;;;;;;5067511;28;20135;-55
2021/01/16 03:32:37;;;;;;;13.38;6.68;;;2.80;99.90;;;;;;5061161;28;20028;-59
2021/01/16 03:35:04;;;;;;;10.13;6.53;;;2.70;99.90;;;;;;5050603;28;20020;-57
2021/01/16 03:37:29;;;;;;;10.40;6.72;;;2.80;99.90;;;;;;5060212;28;20027;-56
2021/01/16 03:39:55;;;;;;;10.65;6.68;;;2.70;99.90;;;;;;5070564;28;20033;-56
2021/01/16 03:42:21;;;;;;;14.55;6.43;;;2.70;99.90;;;;;;5066722;28;20012;-57
2021/01/16 03:44:47;;;;;;;10.07;6.72;;;2.70;99.90;;;;;;5056657;28;20470;-60
2021/01/16 03:47:12;;;;;;;11.35;6.65;;;2.70;99.90;;;;;;5066549;28;20390;-54
2021/01/16 03:49:38;;;;;;;11.57;6.63;;;2.70;99.90;;;;;;5051230;28;20071;-58
2021/01/16 03:52:05;;;;;;;11.40;6.90;;;2.70;99.90;;;;;;5051381;28;20071;-56
2021/01/16 03:54:31;;;;;;;10.23;6.57;;;2.80;99.90;;;;;;5059189;28;20041;-59
2021/01/16 03:56:57;;;;;;;10.75;6.03;;;2.80;99.90;;;;;;5054308;28;20103;-57
2021/01/16 03:59:22;;;;;;;15.00;6.40;;;2.80;99.90;;;;;;5059519;28;20103;-54
2021/01/16 04:01:49;;;;;;;15.40;6.68;;;2.80;99.90;;;;;;5075154;28;20033;-58
2021/01/16 04:04:15;;;;;;;13.32;6.60;;;2.80;99.90;;;;;;5063535;28;20047;-54
2021/01/16 04:06:40;;;;;;;10.57;6.10;;;2.80;99.90;;;;;;5063864;28;20032;-57
2021/01/16 04:09:06;;;;;;;10.13;6.28;;;2.80;99.90;;;;;;5062601;28;20094;-54
2021/01/16 04:11:33;;;;;;;13.43;5.45;;;2.80;99.90;;;;;;5067440;28;20075;-58
2021/01/16 04:13:59;;;;;;;10.93;5.70;;;2.80;99.90;;;;;;5071369;28;20020;-56
2021/01/16 04:16:26;;;;;;;10.05;5.55;;;2.80;99.90;;;;;;5070840;28;20367;-56
2021/01/16 04:18:52;;;;;;;11.20;5.15;;;2.80;99.90;;;;;;5060111;28;20028;-60
2021/01/16 04:21:19;;;;;;;10.68;5.72;;;2.90;99.90;;;;;;5074083;28;20033;-59
2021/01/16 04:23:44;;;;;;;8.30;5.43;;;2.80;99.90;;;;;;5072627;28;20036;-58
2021/01/16 04:26:10;;;;;;;12.77;5.15;;;2.90;99.90;;;;;;5059100;28;20032;-57
2021/01/16 04:28:36;;;;;;;7.53;5.18;;;2.80;99.90;;;;;;5063997;28;20033;-57
2021/01/16 04:31:02;;;;;;;8.70;5.53;;;2.80;99.90;;;;;;5074135;28;20033;-59
2021/01/16 04:33:28;;;;;;;9.23;5.20;;;2.80;99.90;;;;;;5074623;28;20466;-55
2021/01/16 04:35:53;;;;;;;8.48;5.20;;;2.80;99.90;;;;;;5053804;28;20028;-57
2021/01/16 04:38:19;;;;;;;8.77;5.00;;;2.80;99.90;;;;;;5062394;28;20024;-59
2021/01/16 04:40:45;;;;;;;8.05;4.85;;;2.80;99.90;;;;;;5071017;28;20100;-56
2021/01/16 04:43:13;;;;;;;10.48;5.20;;;2.80;99.90;;;;;;5063029;28;20036;-58
2021/01/16 04:45:39;;;;;;;11.05;5.22;;;2.80;99.90;;;;;;5073078;28;20423;-58
2021/01/16 04:48:07;;;;;;;12.27;5.68;;;2.70;99.90;;;;;;5054082;28;20036;-57
2021/01/16 04:50:35;;;;;;;10.63;5.70;;;2.70;99.90;;;;;;5072993;28;20055;-54
2021/01/16 04:53:08;;;;;;;8.55;5.53;;;2.80;99.90;;;;;;5072225;28;20028;-57
2021/01/16 04:55:37;;;;;;;10.27;5.43;;;2.70;99.90;;;;;;5053547;28;20086;-57
2021/01/16 04:58:10;;;;;;;10.05;5.22;;;2.70;99.90;;;;;;5058384;28;20020;-57
2021/01/16 05:00:39;;;;;;;9.27;5.05;;;2.70;99.90;;;;;;5068547;28;20045;-59
2021/01/16 05:03:13;;;;;;;12.60;5.70;;;2.60;99.90;;;;;;5065037;28;20032;-55
2021/01/16 05:05:42;;;;;;;9.32;5.80;;;2.60;99.90;;;;;;5071030;28;20036;-56
2021/01/16 05:08:09;;;;;;;10.75;5.97;;;2.50;99.90;;;;;;5064785;28;20048;-58
2021/01/16 05:10:41;;;;;;;10.35;6.05;;;2.50;99.90;;;;;;5071548;28;20082;-55
2021/01/16 05:13:11;;;;;;;11.65;6.25;;;2.40;99.90;;;;;;5058583;28;20047;-57
2021/01/16 05:15:39;;;;;;;11.05;6.72;;;2.30;99.90;;;;;;5053190;28;20211;-56
2021/01/16 05:18:06;;;;;;;9.85;6.30;;;2.30;99.90;;;;;;5054881;28;20055;-54
2021/01/16 05:20:33;;;;;;;12.60;6.70;;;2.20;99.90;;;;;;5054544;28;20036;-58
2021/01/16 05:23:12;;;;;;;12.40;7.45;;;2.20;99.90;;;;;;5058710;28;20017;-55
2021/01/16 05:25:57;;;;;;;12.57;8.23;;;2.10;99.90;;;;;;5053355;28;20100;-59
2021/01/16 05:28:25;;;;;;;10.95;7.63;;;2.10;99.90;;;;;;5068303;28;20127;-55
2021/01/16 05:30:56;;;;;;;10.93;6.90;;;2.00;99.90;;;;;;5066161;28;20074;-57
2021/01/16 05:33:27;;;;;;;14.63;7.30;;;2.10;99.90;;;;;;5059557;28;20111;-57
2021/01/16 05:35:55;;;;;;;11.82;7.03;;;2.10;99.90;;;;;;5072020;28;20029;-55
2021/01/16 05:38:41;;;;;;;12.82;7.47;;;2.00;99.90;;;;;;5054406;28;20087;-59
2021/01/16 05:41:08;;;;;;;14.32;7.38;;;2.00;99.90;;;;;;5069344;28;20038;-56
2021/01/16 05:43:35;;;;;;;18.10;7.50;;;1.90;99.90;;;;;;5054325;28;20032;-59
2021/01/16 05:46:05;;;;;;;11.50;7.40;;;1.90;99.90;;;;;;5056540;28;20051;-54
2021/01/16 05:48:32;;;;;;;11.75;7.10;;;1.90;99.90;;;;;;5063573;28;20040;-59
2021/01/16 05:50:59;;;;;;;11.75;7.18;;;2.00;99.90;;;;;;5067374;28;20057;-55
2021/01/16 05:53:26;;;;;;;10.48;7.20;;;2.00;99.90;;;;;;5065612;28;20031;-57
2021/01/16 05:55:57;;;;;;;15.52;8.63;;;2.00;99.90;;;;;;5054027;28;20025;-56
2021/01/16 05:58:29;;;;;;;9.90;7.07;;;2.00;99.90;;;;;;5072025;28;20416;-55
2021/01/16 06:00:57;;;;;;;11.48;7.57;;;1.90;99.90;;;;;;5052175;28;20025;-56
2021/01/16 06:03:23;;;;;;;15.80;8.15;;;2.00;99.90;;;;;;5064988;28;20032;-57
2021/01/16 06:05:52;;;;;;;11.27;6.97;;;2.00;99.90;;;;;;5068696;28;20471;-57
2021/01/16 06:08:18;;;;;;;11.77;7.90;;;2.00;99.90;;;;;;5072821;28;20032;-54
2021/01/16 06:10:50;;;;;;;13.45;7.95;;;2.00;99.90;;;;;;5066714;28;20108;-59
2021/01/16 06:13:22;;;;;;;10.05;7.38;;;2.00;99.90;;;;;;5052904;28;20028;-57
2021/01/16 06:15:51;;;;;;;20.27;8.43;;;2.00;99.90;;;;;;5067363;28;20455;-58
2021/01/16 06:18:27;;;;;;;12.65;7.30;;;2.00;99.90;;;;;;5052585;28;20458;-57
2021/01/16 06:20:55;;;;;;;14.02;7.72;;;1.90;99.90;;;;;;5055646;28;20419;-56
2021/01/16 06:23:25;;;;;;;13.38;7.97;;;1.90;99.90;;;;;;5054209;28;20029;-55
2021/01/16 06:25:58;;;;;;;17.50;8.20;;;1.80;99.90;;;;;;5062803;28;20090;-57
2021/01/16 06:28:30;;;;;;;15.43;8.18;;;1.80;99.90;;;;;;5069964;28;20033;-56
2021/01/16 06:30:58;;;;;;;13.63;8.45;;;1.80;99.90;;;;;;5060113;28;20016;-58
2021/01/16 06:33:26;;;;;;;11.38;7.72;;;1.80;99.90;;;;;;5061483;28;20024;-56
2021/01/16 06:36:14;;;;;;;14.40;8.25;;;1.70;99.90;;;;;;5064762;28;20020;-57
2021/01/16 06:38:40;;;;;;;12.82;8.07;;;1.70;99.90;;;;;;5069142;28;20031;-58
2021/01/16 06:41:16;;;;;;;13.77;8.32;;;1.70;99.90;;;;;;5051527;28;20025;-58
2021/01/16 06:43:45;;;;;;;14.05;8.48;;;1.70;99.90;;;;;;5061957;28;20025;-56
2021/01/16 06:46:15;;;;;;;13.07;8.18;;;1.70;99.90;;;;;;5050999;28;20033;-55
2021/01/16 06:48:44;;;;;;;19.17;7.65;;;1.70;99.90;;;;;;5057724;28;20386;-54
2021/01/16 06:51:12;;;;;;;12.65;8.13;;;1.70;99.90;;;;;;5052469;28;20054;-55
2021/01/16 06:53:38;;;;;;;12.35;8.20;;;1.70;99.90;;;;;;5057535;28;20024;-55
2021/01/16 06:56:10;;;;;;;12.68;8.52;;;1.70;99.90;;;;;;5071046;28;20083;-54
2021/01/16 06:58:43;;;;;;;13.15;8.32;;;1.70;99.90;;;;;;5061750;28;20031;-56
2021/01/16 07:01:11;;;;;;;16.65;9.65;;;1.70;99.90;;;;;;5068523;28;20107;-56
2021/01/16 07:03:47;;;;;;;18.60;9.45;;;1.70;99.90;;;;;;5052123;28;20478;-54
2021/01/16 07:06:13;;;;;;;15.40;9.55;;;1.60;99.90;;;;;;5051256;28;20032;-58
2021/01/16 07:08:41;;;;;;;18.75;9.32;;;1.60;99.90;;;;;;5069171;28;20086;-57
2021/01/16 07:11:08;;;;;;;15.25;9.15;;;1.60;99.90;;;;;;5059749;28;20377;-59
2021/01/16 07:13:35;;;;;;;13.27;9.38;;;1.60;99.90;;;;;;5066457;28;20028;-57
2021/01/16 07:16:04;;;;;;;16.05;9.27;;;1.60;99.90;;;;;;5070149;28;20028;-56
2021/01/16 07:18:30;;;;;;;15.32;9.68;;;1.60;99.90;;;;;;5060878;28;20476;-59
2021/01/16 07:21:00;;;;;;;14.88;9.43;;;1.70;99.90;;;;;;5053299;28;20028;-57
2021/01/16 07:23:27;;;;;;;16.85;10.48;;;1.70;99.90;;;;;;5060418;28;20027;-56
2021/01/16 07:25:55;;;;;;;17.95;9.85;;;1.60;99.90;;;;;;5051537;28;20397;-58
2021/01/16 07:28:22;;;;;;;15.45;11.05;;;1.60;99.90;;;;;;5063157;28;20025;-59
2021/01/16 07:30:49;;;;;;;17.63;11.93;;;1.60;99.90;;;;;;5062174;28;20024;-53
2021/01/16 07:33:15;;;;;;;18.33;11.88;;;1.60;99.90;;;;;;5052199;28;20364;-59
2021/01/16 07:35:50;;;;;;;18.13;11.68;;;1.60;99.90;;;;;;5060996;28;20024;-57
2021/01/16 07:38:18;;;;;;;23.48;11.07;;;1.60;99.90;;;;;;5069016;28;20031;-56
2021/01/16 07:40:45;;;;;;;18.25;12.02;;;1.60;99.90;;;;;;5077261;28;20028;-56
2021/01/16 07:44:17;;;;;;;20.05;12.60;;;1.60;99.90;;;;;;5077463;28;20032;-56
2021/01/16 07:46:43;;;;;;;20.52;13.20;;;1.60;99.90;;;;;;5061629;28;20059;-57
2021/01/16 07:49:13;;;;;;;20.58;12.50;;;1.60;99.90;;;;;;5060219;28;20098;-57
2021/01/16 07:51:39;;;;;;;21.23;12.73;;;1.60;99.90;;;;;;5058163;28;20052;-58
2021/01/16 07:54:12;;;;;;;22.50;12.55;;;1.60;99.90;;;;;;5068013;28;20377;-55
2021/01/16 07:56:45;;;;;;;25.73;14.73;;;1.60;99.90;;;;;;5068275;28;20027;-56
2021/01/16 07:59:20;;;;;;;20.48;13.20;;;1.60;99.90;;;;;;5064579;28;20573;-58
2021/01/16 08:01:58;;;;;;;22.60;13.45;;;1.60;99.90;;;;;;5074765;28;20027;-56
2021/01/16 08:04:35;;;;;;;20.70;13.55;;;1.60;99.90;;;;;;5064372;28;20375;-55
2021/01/16 08:07:09;;;;;;;22.90;13.82;;;1.60;99.90;;;;;;5072362;28;20028;-59
2021/01/16 08:09:50;;;;;;;23.65;14.27;;;1.60;99.90;;;;;;5071383;28;20536;-56
2021/01/16 08:12:18;;;;;;;21.88;13.82;;;1.60;99.90;;;;;;5067266;28;20040;-59
2021/01/16 08:14:44;;;;;;;20.17;13.75;;;1.60;99.90;;;;;;5071946;28;20024;-56
2021/01/16 08:17:21;;;;;;;22.75;13.80;;;1.60;99.90;;;;;;5070893;28;20067;-56
2021/01/16 08:19:53;;;;;;;24.25;14.43;;;1.60;99.90;;;;;;5066910;28;20078;-57
2021/01/16 08:22:20;;;;;;;23.00;14.55;;;1.60;99.90;;;;;;5067460;28;20036;-55
2021/01/16 08:25:03;;;;;;;21.08;13.70;;;1.70;99.90;;;;;;5065693;28;20078;-59
2021/01/16 08:27:59;;;;;;;27.77;14.00;;;1.70;99.90;;;;;;5059316;28;20021;-58
2021/01/16 08:30:26;;;;;;;33.05;13.77;;;1.70;99.90;;;;;;5065668;28;20115;-54
2021/01/16 08:32:59;;;;;;;24.42;14.75;;;1.70;99.90;;;;;;5066901;28;20174;-57
2021/01/16 08:35:37;;;;;;;28.67;15.70;;;1.70;99.90;;;;;;5074908;28;20509;-57
2021/01/16 08:38:18;;;;;;;22.20;14.45;;;1.70;99.90;;;;;;5058603;28;20025;-61
2021/01/16 08:40:54;;;;;;;25.63;16.05;;;1.70;99.90;;;;;;5071025;28;20077;-58
2021/01/16 08:43:44;;;;;;;27.05;15.40;;;1.70;99.90;;;;;;5064516;28;20464;-55
2021/01/16 08:46:34;;;;;;;21.42;14.43;;;1.70;99.90;;;;;;5059634;28;20037;-58
2021/01/16 08:49:11;;;;;;;21.08;12.65;;;1.80;99.90;;;;;;5061685;28;20034;-56
2021/01/16 08:51:41;;;;;;;21.73;14.30;;;1.80;99.90;;;;;;5063293;28;20028;-58
2021/01/16 08:54:11;;;;;;;27.05;15.23;;;1.90;99.90;;;;;;5062023;28;20103;-57
2021/01/16 08:56:41;;;;;;;19.63;12.13;;;1.90;99.90;;;;;;5059570;28;20021;-56
2021/01/16 08:59:30;;;;;;;21.13;13.00;;;1.90;99.90;;;;;;5062906;28;20050;-55
2021/01/16 09:02:13;;;;;;;18.30;12.52;;;1.90;99.90;;;;;;5062931;28;20020;-57
2021/01/16 09:04:40;;;;;;;19.33;12.70;;;1.90;99.90;;;;;;5066764;28;20020;-57
2021/01/16 09:07:24;;;;;;;19.42;11.98;;;1.90;99.90;;;;;;5059674;28;20028;-57
2021/01/16 09:09:58;;;;;;;20.23;12.68;;;1.90;99.90;;;;;;5064418;28;20028;-57
2021/01/16 09:12:38;;;;;;;19.20;12.32;;;1.90;99.90;;;;;;5066869;28;20062;-58
2021/01/16 09:15:39;;;;;;;17.63;11.85;;;1.90;99.90;;;;;;5071166;28;20020;-58
2021/01/16 09:18:13;;;;;;;17.92;11.73;;;2.00;99.90;;;;;;5062937;28;20033;-58
2021/01/16 09:20:43;;;;;;;18.80;11.47;;;2.00;99.90;;;;;;5063408;28;20032;-57
2021/01/16 09:23:29;;;;;;;17.23;11.25;;;2.00;99.90;;;;;;5064352;28;20494;-59
2021/01/16 09:25:58;;;;;;;16.40;11.32;;;2.00;99.90;;;;;;5053726;28;20378;-56
2021/01/16 09:28:38;;;;;;;18.73;11.70;;;2.10;99.90;;;;;;5059065;28;20085;-56
2021/01/16 09:31:19;;;;;;;16.60;11.00;;;2.10;99.90;;;;;;5064500;28;20031;-56
2021/01/16 09:33:46;;;;;;;13.38;10.02;;;2.10;99.90;;;;;;5063008;28;20012;-57
2021/01/16 09:36:12;;;;;;;16.25;10.15;;;2.10;99.90;;;;;;5055670;28;20056;-59
2021/01/16 09:38:39;;;;;;;15.80;10.18;;;2.10;99.90;;;;;;5061441;28;20511;-58
2021/01/16 09:41:05;;;;;;;15.45;9.90;;;2.10;99.90;;;;;;5063204;28;20033;-55
2021/01/16 09:43:38;;;;;;;18.67;9.98;;;2.20;99.90;;;;;;5057289;28;20650;-57
2021/01/16 09:46:04;;;;;;;15.70;10.23;;;2.20;99.90;;;;;;5052855;28;20055;-56
2021/01/16 09:48:39;;;;;;;14.25;10.15;;;2.20;99.90;;;;;;5058612;28;20076;-58
2021/01/16 09:51:05;;;;;;;14.35;10.27;;;2.30;99.90;;;;;;5060586;28;20025;-57
2021/01/16 09:53:31;;;;;;;14.45;10.13;;;2.30;99.90;;;;;;5056065;28;20102;-57
2021/01/16 09:55:57;;;;;;;12.75;8.98;;;2.20;99.90;;;;;;5061669;28;20347;-58
2021/01/16 09:58:39;;;;;;;13.48;9.15;;;2.30;99.90;;;;;;5055014;28;20047;-58
2021/01/16 10:01:22;;;;;;;16.45;10.20;;;2.30;99.90;;;;;;5057858;28;20511;-58
2021/01/16 10:03:49;;;;;;;14.68;10.15;;;2.30;99.90;;;;;;5066251;28;20028;-55
2021/01/16 10:06:19;;;;;;;14.60;9.20;;;2.30;99.90;;;;;;5059277;28;20549;-56
2021/01/16 10:08:49;;;;;;;14.57;10.02;;;2.30;99.90;;;;;;5064600;28;20033;-58
2021/01/16 10:11:42;;;;;;;15.60;9.43;;;2.30;99.90;;;;;;5052762;28;20047;-55
2021/01/16 10:14:19;;;;;;;15.50;9.98;;;2.40;99.90;;;;;;5064690;28;20102;-56
2021/01/16 10:16:45;;;;;;;13.38;9.48;;;2.40;99.90;;;;;;5055295;28;20040;-58
2021/01/16 10:19:12;;;;;;;13.98;8.82;;;2.40;99.90;;;;;;5054216;28;20040;-58
2021/01/16 10:21:59;;;;;;;13.27;9.52;;;2.40;99.90;;;;;;5066932;28;20020;-57
2021/01/16 10:24:26;;;;;;;11.77;8.48;;;2.50;99.90;;;;;;5060412;28;20110;-55
2021/01/16 10:26:52;;;;;;;13.43;9.68;;;2.40;99.90;;;;;;5064382;28;20516;-54
2021/01/16 10:29:31;;;;;;;13.35;9.32;;;2.50;99.90;;;;;;5061199;28;20033;-56
2021/01/16 10:32:22;;;;;;;16.00;9.45;;;2.40;99.90;;;;;;5054215;28;20368;-56
2021/01/16 10:34:58;;;;;;;12.70;9.48;;;2.50;99.90;;;;;;5055439;28;20098;-56
2021/01/16 10:37:24;;;;;;;15.18;9.73;;;2.50;99.90;;;;;;5060720;28;20044;-57
2021/01/16 10:39:50;;;;;;;15.18;9.20;;;2.60;99.90;;;;;;5059975;28;20048;-57
2021/01/16 10:42:18;;;;;;;16.83;9.77;;;2.60;99.90;;;;;;5064564;28;20035;-56
2021/01/16 10:44:45;;;;;;;13.85;9.45;;;2.60;99.90;;;;;;5065516;28;20020;-59
2021/01/16 10:47:33;;;;;;;13.20;9.60;;;2.60;99.90;;;;;;5055453;28;20498;-55
2021/01/16 10:50:06;;;;;;;13.98;8.82;;;2.70;99.90;;;;;;5060327;28;20479;-58
2021/01/16 10:52:32;;;;;;;17.58;9.40;;;2.70;99.90;;;;;;5066750;28;20418;-55
2021/01/16 10:55:19;;;;;;;16.23;9.73;;;2.80;99.90;;;;;;5058948;28;20459;-54
2021/01/16 10:57:47;;;;;;;13.55;9.45;;;2.80;99.90;;;;;;5059855;28;20032;-58
2021/01/16 11:00:18;;;;;;;13.07;9.00;;;2.90;99.90;;;;;;5058269;28;20036;-55
2021/01/16 11:02:47;;;;;;;14.38;8.82;;;2.90;99.90;;;;;;5057478;28;20031;-56
2021/01/16 11:05:15;;;;;;;14.93;8.52;;;3.00;99.90;;;;;;5058807;28;20024;-52
2021/01/16 11:07:45;;;;;;;12.98;8.88;;;2.90;99.90;;;;;;5066987;28;20103;-57
2021/01/16 11:10:13;;;;;;;12.60;9.35;;;3.00;99.90;;;;;;5067669;28;20040;-59
2021/01/16 11:12:40;;;;;;;13.27;8.85;;;3.10;99.90;;;;;;5066204;28;20098;-56
2021/01/16 11:15:26;;;;;;;14.38;9.25;;;3.10;99.90;;;;;;5059517;28;20078;-60
2021/01/16 11:17:53;;;;;;;13.10;9.40;;;3.10;99.90;;;;;;5059415;28;20029;-57
2021/01/16 11:20:28;;;;;;;21.85;10.98;;;3.20;99.90;;;;;;5060506;28;20032;-58
2021/01/16 11:23:28;;;;;;;12.95;9.05;;;3.30;99.90;;;;;;5072138;28;20039;-58
2021/01/16 11:25:54;;;;;;;15.43;8.35;;;3.30;99.90;;;;;;5055844;28;20043;-57
2021/01/16 11:28:27;;;;;;;12.15;9.13;;;3.30;99.90;;;;;;5062693;28;20033;-59
2021/01/16 11:31:07;;;;;;;13.10;8.73;;;3.30;99.90;;;;;;5055609;28;20466;-58
2021/01/16 11:33:33;;;;;;;11.57;8.40;;;3.40;99.90;;;;;;5064404;28;20021;-56
2021/01/16 11:36:01;;;;;;;15.15;9.55;;;3.40;99.90;;;;;;5064202;28;20024;-59
2021/01/16 11:38:38;;;;;;;14.35;9.27;;;3.50;99.90;;;;;;5057482;28;20106;-61
2021/01/16 11:41:04;;;;;;;11.70;8.10;;;3.50;99.90;;;;;;5055734;28;20032;-57
2021/01/16 11:43:31;;;;;;;13.57;9.18;;;3.50;99.90;;;;;;5058550;28;20481;-58
2021/01/16 11:46:04;;;;;;;16.77;9.63;;;3.50;99.90;;;;;;5066137;28;20073;-56
2021/01/16 11:48:32;;;;;;;13.43;8.55;;;3.60;99.90;;;;;;5055030;28;20044;-58
2021/01/16 11:50:58;;;;;;;11.88;8.57;;;3.70;99.90;;;;;;5053071;28;20066;-59
2021/01/16 11:53:25;;;;;;;18.80;11.05;;;3.70;99.90;;;;;;5063712;28;20061;-58
2021/01/16 11:55:50;;;;;;;11.55;8.90;;;3.80;99.90;;;;;;5066539;28;20085;-57
2021/01/16 11:58:16;;;;;;;15.10;8.48;;;3.80;99.90;;;;;;5054196;28;20029;-60
2021/01/16 12:00:43;;;;;;;10.07;7.15;;;3.80;99.90;;;;;;5064639;28;20047;-57
2021/01/16 12:03:10;;;;;;;13.73;8.50;;;3.80;99.90;;;;;;5054320;28;20044;-58
2021/01/16 12:05:35;;;;;;;9.68;7.68;;;3.80;99.90;;;;;;5062013;28;20055;-58
2021/01/16 12:08:03;;;;;;;16.15;9.68;;;3.80;99.90;;;;;;5057807;28;20032;-58
2021/01/16 12:10:29;;;;;;;11.45;7.50;;;3.80;99.90;;;;;;5065440;28;20024;-57
2021/01/16 12:12:58;;;;;;;12.07;8.07;;;3.80;99.90;;;;;;5055468;28;20386;-56
2021/01/16 12:15:28;;;;;;;19.42;9.80;;;3.90;99.90;;;;;;5068894;28;20103;-56
2021/01/16 12:17:55;;;;;;;12.57;8.20;;;3.90;99.90;;;;;;5054597;28;20099;-58
2021/01/16 12:20:26;;;;;;;12.55;8.63;;;4.00;99.90;;;;;;5062026;28;20107;-57
2021/01/16 12:23:00;;;;;;;12.30;8.82;;;4.00;99.90;;;;;;5067841;28;20028;-59
2021/01/16 12:25:32;;;;;;;11.55;8.18;;;4.10;99.90;;;;;;5055437;28;20363;-60
2021/01/16 12:27:59;;;;;;;12.82;8.65;;;4.20;99.90;;;;;;5064477;28;20043;-57
2021/01/16 12:30:36;;;;;;;11.82;8.40;;;4.30;99.90;;;;;;5060701;28;20023;-59
2021/01/16 12:33:02;;;;;;;14.02;9.05;;;4.30;99.90;;;;;;5061448;28;20041;-56
2021/01/16 12:35:28;;;;;;;12.52;8.20;;;4.30;99.90;;;;;;5074274;28;20029;-58
2021/01/16 12:37:54;;;;;;;13.43;8.80;;;4.40;99.90;;;;;;5060917;28;20017;-58
2021/01/16 12:40:25;;;;;;;14.05;9.15;;;4.50;99.90;;;;;;5069901;28;20082;-60
2021/01/16 12:42:52;;;;;;;12.25;8.82;;;4.50;99.90;;;;;;5066097;28;20046;-59
2021/01/16 12:45:20;;;;;;;16.63;9.43;;;4.50;99.90;;;;;;5069627;28;20086;-59
2021/01/16 12:47:49;;;;;;;15.52;9.55;;;4.50;99.90;;;;;;5057376;28;20112;-58
2021/01/16 12:50:15;;;;;;;15.88;10.43;;;4.50;99.90;;;;;;5055089;28;20028;-60
2021/01/16 12:52:49;;;;;;;10.70;7.78;;;4.50;99.90;;;;;;5066319;28;20052;-58
2021/01/16 12:55:18;;;;;;;13.20;8.93;;;4.60;99.90;;;;;;5067934;28;20402;-58
2021/01/16 12:57:45;;;;;;;27.65;16.42;;;4.70;99.90;;;;;;5061891;28;20035;-56
2021/01/16 13:00:13;;;;;;;12.93;9.00;;;4.80;99.90;;;;;;5060669;28;20037;-59
2021/01/16 13:02:39;;;;;;;12.88;9.25;;;4.90;99.90;;;;;;5063820;28;20037;-56